Time;durP1;ratioP1;P1;durP2;ratioP2;P2;SDS_P1;SDS_P2;PMS_P1;PMS_P2;Temp;Humidity;BMP_temperature;BMP_pressure;BME280_temperature;BME280_humidity;BME280_pressure;Samples;Min_cycle;Max_cycle;Signal;HPM_P1;HPM_P2
2023/10/21 00:02:02;;;;;;;;;2.75;2.75;;;;;16.30;73.14;97945.47;5122363;27;45329;-79
2023/10/21 00:04:28;;;;;;;;;5.25;3.75;;;;;16.30;73.13;97956.03;5119111;27;45548;-79
2023/10/21 00:06:53;;;;;;;;;3.50;1.75;;;;;16.31;73.16;97963.81;5123774;27;45240;-79
2023/10/21 00:09:19;;;;;;;;;3.25;3.00;;;;;16.28;73.03;97956.16;5121354;27;54198;-79
2023/10/21 00:11:44;;;;;;;;;2.50;2.50;;;;;16.31;73.31;97965.63;5124820;27;61531;-79
2023/10/21 00:14:09;;;;;;;;;2.50;2.00;;;;;16.28;73.55;97961.44;5121701;27;66094;-79
2023/10/21 00:16:35;;;;;;;;;2.75;2.75;;;;;16.27;73.50;97967.72;5089904;27;62979;-78
2023/10/21 00:19:00;;;;;;;;;2.75;2.75;;;;;16.29;73.97;97973.69;5118274;27;71048;-78
2023/10/21 00:21:25;;;;;;;;;2.75;2.00;;;;;16.32;73.68;97976.03;5122589;27;45239;-77
2023/10/21 00:23:51;;;;;;;;;2.50;1.50;;;;;16.33;73.58;97975.03;5118095;27;69719;-77
2023/10/21 00:26:16;;;;;;;;;1.00;1.00;;;;;16.33;74.05;97979.50;5116993;27;45422;-76
2023/10/21 00:28:42;;;;;;;;;0.25;0.25;;;;;16.28;73.59;97993.13;5112963;27;47781;-76
2023/10/21 00:31:07;;;;;;;;;0.50;0.00;;;;;16.23;72.71;98005.91;5121373;27;61671;-76
2023/10/21 00:33:33;;;;;;;;;0.00;0.00;;;;;16.21;71.74;98017.59;5104274;27;45540;-77
2023/10/21 00:35:59;;;;;;;;;0.00;0.00;;;;;16.12;71.42;98020.13;5099142;27;45547;-77
2023/10/21 00:38:24;;;;;;;;;0.50;0.00;;;;;16.12;71.12;98030.66;5132228;27;45260;-78
2023/10/21 00:40:51;;;;;;;;;0.00;0.00;;;;;16.07;70.55;98029.44;5118825;27;45357;-77
2023/10/21 00:43:36;;;;;;;;;0.00;0.00;;;;;16.02;70.87;98039.59;5118966;27;45240;-77
2023/10/21 00:46:05;;;;;;;;;0.75;0.00;;;;;15.98;70.57;98049.59;5105349;27;45253;-78
2023/10/21 00:48:32;;;;;;;;;0.25;0.25;;;;;15.96;70.54;98056.81;5109281;27;47022;-77
2023/10/21 00:50:57;;;;;;;;;0.00;0.00;;;;;15.92;70.38;98063.34;5122703;27;45271;-77
2023/10/21 00:53:23;;;;;;;;;0.00;0.00;;;;;15.91;70.63;98078.31;5133388;27;45393;-77
2023/10/21 00:55:48;;;;;;;;;0.50;0.25;;;;;15.87;70.68;98084.88;5108990;27;45288;-77
2023/10/21 00:58:15;;;;;;;;;0.00;0.00;;;;;15.86;69.75;98098.19;5124614;27;65636;-77
2023/10/21 01:00:40;;;;;;;;;0.00;0.00;;;;;15.84;70.15;98100.97;5104224;27;45272;-77
2023/10/21 01:03:06;;;;;;;;;0.25;0.00;;;;;15.79;70.16;98105.00;5120318;27;45682;-77
2023/10/21 01:05:31;;;;;;;;;0.50;0.00;;;;;15.77;70.35;98110.41;5118654;27;45708;-77
2023/10/21 01:07:59;;;;;;;;;0.00;0.00;;;;;15.74;70.17;98114.16;5119065;27;48606;-77
2023/10/21 01:10:25;;;;;;;;;1.25;0.00;;;;;15.72;70.28;98117.84;5121492;27;47796;-77
2023/10/21 01:12:51;;;;;;;;;0.00;0.00;;;;;15.70;70.40;98128.53;5101293;27;45443;-77
2023/10/21 01:15:16;;;;;;;;;0.50;0.00;;;;;15.70;70.46;98125.09;5122520;27;45630;-77
2023/10/21 01:17:42;;;;;;;;;0.00;0.00;;;;;15.71;70.16;98132.03;5117549;27;47520;-76
2023/10/21 01:20:09;;;;;;;;;0.00;0.00;;;;;15.67;70.47;98141.16;5116316;27;68033;-76
2023/10/21 01:22:34;;;;;;;;;0.00;0.00;;;;;15.67;70.20;98144.66;5088456;27;45389;-76
2023/10/21 01:25:00;;;;;;;;;0.00;0.00;;;;;15.64;70.04;98142.28;5112652;27;70942;-77
2023/10/21 01:27:25;;;;;;;;;0.00;0.00;;;;;15.63;69.87;98150.34;5083561;27;47361;-76
2023/10/21 01:29:51;;;;;;;;;0.25;0.00;;;;;15.57;69.29;98151.72;5092182;27;45361;-76
2023/10/21 01:32:16;;;;;;;;;2.00;0.00;;;;;15.56;69.84;98158.81;5115531;27;61246;-76
2023/10/21 01:34:41;;;;;;;;;0.00;0.00;;;;;15.54;69.07;98170.44;5101762;27;72557;-77
2023/10/21 01:37:07;;;;;;;;;0.00;0.00;;;;;15.46;68.71;98157.94;5116759;27;70957;-77
2023/10/21 01:39:32;;;;;;;;;0.75;0.00;;;;;15.44;68.69;98177.47;5098877;27;72627;-76
2023/10/21 01:41:57;;;;;;;;;1.00;0.00;;;;;15.41;68.86;98172.50;5124105;27;58348;-77
2023/10/21 01:44:23;;;;;;;;;0.00;0.00;;;;;15.42;68.76;98185.53;5120914;27;69492;-76
2023/10/21 01:46:48;;;;;;;;;0.00;0.00;;;;;15.41;68.39;98185.69;5111354;27;45205;-76
2023/10/21 01:49:13;;;;;;;;;1.00;0.00;;;;;15.43;68.30;98197.75;5120702;27;48193;-76
2023/10/21 01:51:39;;;;;;;;;0.00;0.00;;;;;15.42;68.02;98195.25;5110658;27;45367;-76
2023/10/21 01:54:04;;;;;;;;;0.00;0.00;;;;;15.43;68.50;98197.75;5117921;27;62003;-75
2023/10/21 01:56:30;;;;;;;;;0.00;0.00;;;;;15.44;68.18;98201.19;5109479;27;45562;-75
2023/10/21 01:58:56;;;;;;;;;0.00;0.00;;;;;15.48;67.77;98205.25;5111103;27;45449;-75
2023/10/21 02:01:22;;;;;;;;;1.00;0.00;;;;;15.45;68.07;98201.06;5089196;27;60879;-75
2023/10/21 02:03:47;;;;;;;;;0.00;0.00;;;;;15.46;67.81;98202.75;5110684;27;63223;-76
2023/10/21 02:06:12;;;;;;;;;0.00;0.00;;;;;15.45;67.67;98206.34;5107555;27;63710;-76
2023/10/21 02:08:38;;;;;;;;;0.75;0.00;;;;;15.43;68.09;98208.28;5100166;27;45448;-76
2023/10/21 02:11:03;;;;;;;;;0.00;0.00;;;;;15.42;68.13;98214.50;5114441;27;45484;-75
2023/10/21 02:13:29;;;;;;;;;0.00;0.00;;;;;15.40;68.08;98219.09;5104018;27;45647;-75
2023/10/21 02:15:54;;;;;;;;;0.00;0.00;;;;;15.36;68.15;98222.97;5118400;27;46962;-75
2023/10/21 02:18:20;;;;;;;;;1.00;0.00;;;;;15.36;68.46;98230.88;5119266;27;45516;-75
2023/10/21 02:20:45;;;;;;;;;1.00;0.00;;;;;15.35;68.24;98235.31;5085556;27;45328;-76
2023/10/21 02:23:10;;;;;;;;;2.25;0.00;;;;;15.35;68.39;98253.75;5107972;27;45370;-74
2023/10/21 02:25:36;;;;;;;;;0.00;0.00;;;;;15.33;67.83;98244.31;5101470;27;63624;-74
2023/10/21 02:28:02;;;;;;;;;1.00;0.00;;;;;15.33;68.07;98246.94;5099725;27;67794;-74
2023/10/21 02:30:29;;;;;;;;;0.00;0.00;;;;;15.30;67.74;98249.88;5085747;27;45498;-74
2023/10/21 02:32:54;;;;;;;;;4.00;0.00;;;;;15.24;67.63;98247.75;5101138;27;45453;-74
2023/10/21 02:35:20;;;;;;;;;1.25;0.00;;;;;15.23;67.59;98259.22;5102425;27;46057;-74
2023/10/21 02:37:46;;;;;;;;;0.00;0.00;;;;;15.19;67.93;98266.56;5108838;27;45440;-75
2023/10/21 02:40:17;;;;;;;;;0.75;0.00;;;;;15.13;66.92;98267.94;5118888;27;45477;-75
2023/10/21 02:42:44;;;;;;;;;0.50;0.00;;;;;15.13;66.94;98267.13;5096480;27;45249;-75
2023/10/21 02:45:10;;;;;;;;;0.00;0.00;;;;;15.05;67.14;98257.25;5100996;27;46046;-75
2023/10/21 02:47:35;;;;;;;;;0.00;0.00;;;;;15.03;67.02;98269.69;5111583;27;45266;-75
2023/10/21 02:50:01;;;;;;;;;1.50;0.00;;;;;15.07;66.94;98276.38;5121065;27;45332;-76
2023/10/21 02:52:27;;;;;;;;;0.00;0.00;;;;;15.07;67.29;98278.16;5105570;27;45542;-75
2023/10/21 02:54:52;;;;;;;;;1.00;0.00;;;;;15.10;66.51;98297.19;5101174;27;71823;-75
2023/10/21 02:57:18;;;;;;;;;1.00;0.00;;;;;15.10;65.57;98288.44;5102057;27;59286;-75
2023/10/21 02:59:43;;;;;;;;;0.00;0.00;;;;;15.07;65.42;98293.97;5102813;27;45575;-75
2023/10/21 03:02:09;;;;;;;;;0.00;0.00;;;;;15.06;66.15;98303.66;5099618;27;45505;-75
2023/10/21 03:04:35;;;;;;;;;0.00;0.00;;;;;15.04;65.81;98295.06;5113190;27;64364;-75
2023/10/21 03:07:01;;;;;;;;;1.00;0.00;;;;;15.03;65.43;98308.38;5105949;27;46267;-76
2023/10/21 03:09:26;;;;;;;;;0.00;0.00;;;;;15.02;66.05;98301.44;5114897;27;45257;-76
2023/10/21 03:11:52;;;;;;;;;0.00;0.00;;;;;14.98;65.45;98308.78;5098778;27;45520;-76
2023/10/21 03:14:17;;;;;;;;;0.50;0.00;;;;;14.97;66.18;98318.44;5115712;27;45760;-75
2023/10/21 03:16:43;;;;;;;;;1.00;0.00;;;;;14.98;66.34;98321.94;5101009;27;71722;-75
2023/10/21 03:19:08;;;;;;;;;2.50;0.00;;;;;14.99;66.04;98327.06;5098820;27;45278;-76
2023/10/21 03:21:33;;;;;;;;;2.00;0.00;;;;;15.00;65.62;98317.38;5110165;27;53793;-76
2023/10/21 03:23:59;;;;;;;;;1.00;0.00;;;;;15.00;66.08;98323.47;5115302;27;67230;-75
2023/10/21 03:26:24;;;;;;;;;0.00;0.00;;;;;15.01;65.71;98326.94;5105308;27;45316;-75
2023/10/21 03:28:50;;;;;;;;;0.75;0.75;;;;;15.00;65.51;98326.09;5121502;27;45270;-75
2023/10/21 03:31:16;;;;;;;;;1.75;0.00;;;;;14.97;65.42;98331.63;5123765;27;45298;-75
2023/10/21 03:33:41;;;;;;;;;1.00;0.00;;;;;14.95;65.80;98343.25;5111871;27;62146;-75
2023/10/21 03:36:06;;;;;;;;;0.00;0.00;;;;;14.92;65.73;98335.59;5106818;27;68553;-75
2023/10/21 03:38:32;;;;;;;;;0.00;0.00;;;;;14.89;65.85;98338.47;5120369;27;45736;-75
2023/10/21 03:41:05;;;;;;;;;2.75;0.00;;;;;14.88;66.50;98347.38;5114745;27;45425;-74
2023/10/21 03:43:30;;;;;;;;;2.00;0.00;;;;;14.86;65.60;98351.94;5119202;27;45452;-75
2023/10/21 03:45:56;;;;;;;;;1.50;0.00;;;;;14.85;66.39;98344.97;5122541;27;45303;-75
2023/10/21 03:48:22;;;;;;;;;2.25;0.00;;;;;14.82;66.36;98356.63;5123491;27;45369;-76
2023/10/21 03:50:51;;;;;;;;;0.25;0.00;;;;;14.81;66.00;98363.66;5122854;27;45505;-75
2023/10/21 03:53:17;;;;;;;;;2.25;1.00;;;;;14.79;66.21;98370.03;5112899;27;45533;-75
2023/10/21 03:55:43;;;;;;;;;1.75;0.00;;;;;14.81;65.82;98376.00;5104437;27;45422;-74
2023/10/21 03:58:10;;;;;;;;;0.00;0.00;;;;;14.79;65.96;98381.38;5120775;27;45424;-74
2023/10/21 04:00:36;;;;;;;;;0.75;0.75;;;;;14.83;66.12;98384.59;5099837;27;45376;-74
2023/10/21 04:03:02;;;;;;;;;1.00;0.00;;;;;14.81;66.54;98391.78;5117898;27;45468;-74
2023/10/21 04:05:28;;;;;;;;;0.00;0.00;;;;;14.81;66.20;98395.25;5094359;27;45316;-74
2023/10/21 04:07:55;;;;;;;;;1.50;0.00;;;;;14.72;66.14;98377.59;5121839;27;45354;-74
2023/10/21 04:10:20;;;;;;;;;2.00;0.00;;;;;14.79;66.52;98391.91;5107412;27;45273;-74
2023/10/21 04:12:46;;;;;;;;;0.00;0.00;;;;;14.79;66.02;98397.19;5106086;27;45774;-74
2023/10/21 04:15:12;;;;;;;;;0.00;0.00;;;;;14.80;65.65;98403.28;5109242;27;46248;-75
2023/10/21 04:17:38;;;;;;;;;1.00;0.00;;;;;14.76;65.82;98401.88;5102107;27;45529;-75
2023/10/21 04:20:04;;;;;;;;;0.00;0.00;;;;;14.74;65.74;98409.88;5101940;27;45229;-75
2023/10/21 04:22:30;;;;;;;;;0.00;0.00;;;;;14.71;65.47;98410.13;5101808;27;45521;-75
2023/10/21 04:24:55;;;;;;;;;2.00;0.00;;;;;14.67;65.46;98403.44;5108298;27;58220;-76
2023/10/21 04:27:21;;;;;;;;;0.00;0.00;;;;;14.68;65.67;98413.03;5117073;27;45191;-76
2023/10/21 04:29:46;;;;;;;;;0.75;0.00;;;;;14.68;64.53;98422.69;5117720;27;58912;-76
2023/10/21 04:32:11;;;;;;;;;0.00;0.00;;;;;14.66;64.95;98414.97;5101355;27;49544;-75
2023/10/21 04:34:37;;;;;;;;;1.00;0.00;;;;;14.67;65.11;98421.88;5106998;27;45434;-75
2023/10/21 04:37:02;;;;;;;;;1.00;0.00;;;;;14.68;64.91;98426.19;5100844;27;54491;-75
2023/10/21 04:39:28;;;;;;;;;0.50;0.00;;;;;14.69;65.58;98422.56;5108826;27;57353;-75
2023/10/21 04:41:54;;;;;;;;;0.75;0.00;;;;;14.66;65.29;98422.00;5115675;27;45723;-74
2023/10/21 04:44:20;;;;;;;;;0.75;0.00;;;;;14.70;65.52;98434.78;5115341;27;45325;-75
2023/10/21 04:46:46;;;;;;;;;0.00;0.00;;;;;14.70;65.65;98433.97;5107550;27;45473;-74
2023/10/21 04:49:12;;;;;;;;;0.00;0.00;;;;;14.72;65.75;98442.56;5121393;27;45383;-74
2023/10/21 04:51:37;;;;;;;;;1.50;0.00;;;;;14.72;65.66;98445.22;5120321;27;46379;-74
2023/10/21 04:54:03;;;;;;;;;0.00;0.00;;;;;14.71;65.42;98451.41;5103426;27;50593;-73
2023/10/21 04:56:29;;;;;;;;;0.50;0.00;;;;;14.68;65.55;98452.53;5104412;27;45316;-74
2023/10/21 04:58:54;;;;;;;;;0.00;0.00;;;;;14.68;65.55;98459.56;5102382;27;47722;-74
2023/10/21 05:01:19;;;;;;;;;0.50;0.00;;;;;14.67;65.64;98458.72;5109306;27;70702;-75
2023/10/21 05:03:45;;;;;;;;;2.00;0.50;;;;;14.68;65.52;98456.94;5117667;27;69728;-75
2023/10/21 05:06:10;;;;;;;;;1.25;0.00;;;;;14.66;65.28;98458.84;5102922;27;45221;-75
2023/10/21 05:08:35;;;;;;;;;0.75;0.00;;;;;14.64;65.71;98466.88;5104306;27;63053;-75
2023/10/21 05:11:01;;;;;;;;;1.00;0.00;;;;;14.65;65.88;98467.72;5122097;27;45365;-75
2023/10/21 05:13:26;;;;;;;;;0.00;0.00;;;;;14.62;65.42;98474.06;5111255;27;57605;-75
2023/10/21 05:15:51;;;;;;;;;1.00;0.00;;;;;14.63;65.67;98473.09;5101717;27;45444;-75
2023/10/21 05:18:17;;;;;;;;;0.00;0.00;;;;;14.66;65.95;98477.28;5137064;27;45261;-75
2023/10/21 05:20:42;;;;;;;;;1.00;0.00;;;;;14.67;65.80;98479.78;5100679;27;45517;-75
2023/10/21 05:23:08;;;;;;;;;0.75;0.00;;;;;14.66;65.64;98479.91;5093151;27;59102;-75
2023/10/21 05:25:33;;;;;;;;;3.00;0.75;;;;;14.68;66.20;98489.38;5107047;27;45496;-74
2023/10/21 05:27:59;;;;;;;;;0.25;0.00;;;;;14.70;66.07;98484.81;5120822;27;45360;-75
2023/10/21 05:30:24;;;;;;;;;1.75;0.00;;;;;14.69;66.27;98488.41;5118780;27;46073;-75
2023/10/21 05:32:49;;;;;;;;;3.00;1.00;;;;;14.69;66.24;98482.31;5125266;27;45401;-74
2023/10/21 05:35:15;;;;;;;;;0.75;0.00;;;;;14.64;66.20;98487.09;5108741;27;45457;-74
2023/10/21 05:37:40;;;;;;;;;2.00;0.00;;;;;14.59;66.14;98485.69;5106230;27;45314;-75
2023/10/21 05:40:06;;;;;;;;;0.00;0.00;;;;;14.53;65.89;98495.81;5112317;27;68145;-75
2023/10/21 05:42:32;;;;;;;;;3.00;1.00;;;;;14.52;66.12;98502.03;5094198;27;45535;-75
2023/10/21 05:44:59;;;;;;;;;3.00;0.00;;;;;14.48;66.18;98501.44;5102135;27;45567;-76
2023/10/21 05:47:24;;;;;;;;;4.00;0.00;;;;;14.45;66.09;98493.81;5117338;27;45421;-76
2023/10/21 05:49:49;;;;;;;;;2.50;0.00;;;;;14.50;66.46;98504.81;5101373;27;72047;-75
2023/10/21 05:52:15;;;;;;;;;2.50;0.50;;;;;14.47;66.25;98502.41;5100976;27;60097;-75
2023/10/21 05:54:40;;;;;;;;;0.50;0.00;;;;;14.44;65.91;98494.75;5114960;27;45234;-75
2023/10/21 05:57:06;;;;;;;;;2.00;1.00;;;;;14.40;66.17;98503.84;5118785;27;45291;-75
2023/10/21 05:59:31;;;;;;;;;2.25;0.75;;;;;14.36;66.26;98503.25;5106947;27;62934;-76
2023/10/21 06:01:56;;;;;;;;;0.00;0.00;;;;;14.36;66.48;98512.94;5125579;27;66798;-75
2023/10/21 06:04:22;;;;;;;;;2.00;0.00;;;;;14.34;66.30;98499.91;5120886;27;45455;-75
2023/10/21 06:06:49;;;;;;;;;2.75;0.00;;;;;14.32;66.36;98504.44;5117454;27;71868;-75
2023/10/21 06:09:15;;;;;;;;;1.00;1.00;;;;;14.32;66.52;98507.06;5107932;27;46244;-75
2023/10/21 06:11:40;;;;;;;;;1.00;1.00;;;;;14.32;66.79;98506.25;5128619;27;46724;-75
2023/10/21 06:14:06;;;;;;;;;2.00;1.00;;;;;14.31;66.94;98504.59;5111650;27;45356;-75
2023/10/21 06:16:31;;;;;;;;;0.50;0.00;;;;;14.29;67.08;98511.72;5102398;27;45362;-74
2023/10/21 06:18:56;;;;;;;;;1.50;0.00;;;;;14.29;66.81;98509.09;5112215;27;66626;-75
2023/10/21 06:21:22;;;;;;;;;4.50;1.00;;;;;14.30;66.86;98510.78;5117760;27;67606;-75
2023/10/21 06:23:47;;;;;;;;;2.25;1.00;;;;;14.33;66.61;98524.53;5108476;27;45369;-76
2023/10/21 06:26:13;;;;;;;;;1.75;0.00;;;;;14.35;66.69;98525.25;5106394;27;45439;-75
2023/10/21 06:28:38;;;;;;;;;1.50;1.00;;;;;14.34;66.61;98518.34;5109679;27;46880;-75
2023/10/21 06:31:04;;;;;;;;;1.00;0.00;;;;;14.35;66.68;98530.50;5109566;27;45411;-77
2023/10/21 06:33:30;;;;;;;;;3.00;0.00;;;;;14.37;66.86;98535.66;5112431;27;45285;-76
2023/10/21 06:35:55;;;;;;;;;2.25;0.50;;;;;14.37;66.84;98536.50;5119190;27;54602;-76
2023/10/21 06:38:21;;;;;;;;;0.50;0.00;;;;;14.39;66.69;98537.19;5115257;27;47346;-76
2023/10/21 06:40:46;;;;;;;;;1.75;1.00;;;;;14.41;66.36;98547.63;5111427;27;45262;-76
2023/10/21 06:43:12;;;;;;;;;4.00;1.00;;;;;14.41;66.29;98543.22;5106797;27;45705;-76
2023/10/21 06:45:38;;;;;;;;;1.00;1.00;;;;;14.49;65.96;98549.66;5120866;27;45271;-76
2023/10/21 06:48:04;;;;;;;;;3.00;1.00;;;;;14.52;66.16;98560.78;5106046;27;45369;-76
2023/10/21 06:50:30;;;;;;;;;3.00;1.00;;;;;14.57;65.86;98569.16;5110887;27;45633;-77
2023/10/21 06:52:56;;;;;;;;;1.50;1.00;;;;;14.60;65.41;98571.56;5109960;27;45544;-76
2023/10/21 06:55:21;;;;;;;;;0.50;0.00;;;;;14.61;65.63;98568.00;5118047;27;65021;-77
2023/10/21 06:57:47;;;;;;;;;3.50;0.50;;;;;14.66;65.21;98570.28;5120035;27;45333;-77
2023/10/21 07:00:13;;;;;;;;;4.00;0.00;;;;;14.70;65.34;98578.75;5117794;27;45287;-77
2023/10/21 07:02:38;;;;;;;;;1.00;0.00;;;;;14.73;64.99;98582.00;5107906;27;45234;-76
2023/10/21 07:05:04;;;;;;;;;2.75;0.00;;;;;14.73;64.45;98583.75;5116430;27;45261;-76
2023/10/21 07:07:29;;;;;;;;;1.00;0.00;;;;;14.76;64.72;98588.81;5095606;27;48215;-75
2023/10/21 07:09:54;;;;;;;;;3.00;0.25;;;;;14.77;64.27;98583.41;5120368;27;69387;-76
2023/10/21 07:12:20;;;;;;;;;1.25;1.25;;;;;14.78;64.81;98598.28;5119842;27;62620;-76
2023/10/21 07:14:47;;;;;;;;;1.25;0.00;;;;;14.79;64.32;98597.28;5113778;27;45728;-76
2023/10/21 07:17:13;;;;;;;;;3.75;1.00;;;;;14.79;64.60;98602.56;5095252;27;47610;-74
2023/10/21 07:19:39;;;;;;;;;2.25;0.00;;;;;14.81;63.79;98621.69;5123993;27;45259;-74
2023/10/21 07:22:04;;;;;;;;;2.00;0.50;;;;;14.86;64.14;98615.25;5109223;27;45275;-75
2023/10/21 07:24:30;;;;;;;;;1.50;0.00;;;;;14.84;63.87;98619.78;5102528;27;65485;-74
2023/10/21 07:26:55;;;;;;;;;1.25;0.75;;;;;14.88;63.25;98615.97;5115315;27;45600;-74
2023/10/21 07:29:22;;;;;;;;;2.50;1.00;;;;;14.89;63.67;98622.91;5118768;27;53049;-71
2023/10/21 07:31:47;;;;;;;;;2.75;0.25;;;;;14.93;63.86;98621.72;5113416;27;45481;-73
2023/10/21 07:34:12;;;;;;;;;2.50;1.00;;;;;14.95;63.85;98609.25;5119075;27;45351;-74
2023/10/21 07:36:38;;;;;;;;;5.25;1.00;;;;;14.95;63.96;98611.88;5107886;27;59977;-74
2023/10/21 07:39:07;;;;;;;;;0.50;0.00;;;;;14.98;63.68;98628.28;5109258;27;45754;-73
2023/10/21 07:41:33;;;;;;;;;1.75;1.00;;;;;15.03;63.02;98625.28;5112190;27;45491;-71
2023/10/21 07:43:59;;;;;;;;;2.50;1.00;;;;;15.01;63.23;98640.38;5109215;27;45638;-73
2023/10/21 07:46:25;;;;;;;;;2.75;1.00;;;;;15.03;63.24;98621.81;5112711;27;45544;-72
2023/10/21 07:48:51;;;;;;;;;5.75;2.00;;;;;15.00;63.30;98615.00;5113850;27;45504;-73
2023/10/21 07:51:16;;;;;;;;;1.00;1.00;;;;;15.05;63.41;98625.16;5104671;27;45445;-78
2023/10/21 07:53:42;;;;;;;;;6.25;2.25;;;;;15.05;63.18;98633.91;5118703;27;45497;-72
2023/10/21 07:56:07;;;;;;;;;4.00;1.00;;;;;15.07;62.72;98637.25;5100892;27;72667;-73
2023/10/21 07:58:32;;;;;;;;;2.50;0.75;;;;;15.12;62.97;98640.38;5101114;27;65145;-72
2023/10/21 08:00:58;;;;;;;;;2.25;1.00;;;;;15.12;62.86;98637.75;5109968;27;45398;-72
2023/10/21 08:03:23;;;;;;;;;2.50;1.00;;;;;15.17;62.47;98638.22;5111143;27;45504;-74
2023/10/21 08:05:49;;;;;;;;;4.50;0.75;;;;;15.16;62.62;98625.16;5111332;27;46529;-73
2023/10/21 08:08:14;;;;;;;;;2.00;1.00;;;;;15.19;61.86;98638.06;5112807;27;45309;-74
2023/10/21 08:10:39;;;;;;;;;3.50;1.00;;;;;15.17;62.11;98625.03;5104282;27;56025;-74
2023/10/21 08:13:05;;;;;;;;;3.00;1.00;;;;;15.17;62.05;98648.75;5116690;27;52558;-73
2023/10/21 08:15:31;;;;;;;;;3.00;1.00;;;;;15.19;62.39;98648.59;5111678;27;46414;-75
2023/10/21 08:17:56;;;;;;;;;7.00;0.00;;;;;15.26;61.70;98659.50;5120920;27;45667;-79
2023/10/21 08:20:22;;;;;;;;;1.50;1.00;;;;;15.22;61.83;98650.16;5110633;27;67475;-77
2023/10/21 08:22:47;;;;;;;;;2.75;0.50;;;;;15.24;61.79;98662.25;5101374;27;64232;-75
2023/10/21 08:25:13;;;;;;;;;2.00;1.00;;;;;15.28;61.18;98639.13;5112214;27;45554;-76
2023/10/21 08:27:39;;;;;;;;;3.00;0.75;;;;;15.36;61.87;98663.06;5106852;27;45471;-79
2023/10/21 08:30:05;;;;;;;;;5.50;1.75;;;;;15.35;61.79;98666.66;5116636;27;63679;-77
2023/10/21 08:32:31;;;;;;;;;2.00;1.00;;;;;15.36;61.86;98663.06;5107526;27;45499;-82
2023/10/21 08:34:56;;;;;;;;;1.00;1.00;;;;;15.36;61.37;98653.38;5122745;27;73976;-89
2023/10/21 08:37:21;;;;;;;;;1.25;0.50;;;;;15.35;61.46;98671.94;5111311;27;45559;-75
2023/10/21 08:39:48;;;;;;;;;3.25;1.00;;;;;15.36;61.64;98668.34;5114875;27;45496;-81
2023/10/21 08:42:18;;;;;;;;;3.75;1.00;;;;;15.35;61.55;98667.53;5122127;27;45489;-78
2023/10/21 08:44:47;;;;;;;;;5.25;1.50;;;;;15.37;61.89;98672.66;5110345;27;45492;-80
2023/10/21 08:47:13;;;;;;;;;4.25;1.25;;;;;15.40;61.20;98666.31;5127625;27;45192;-78
2023/10/21 08:49:41;;;;;;;;;0.00;0.00;;;;;15.44;60.88;98658.03;5106504;27;45484;-80
2023/10/21 08:52:10;;;;;;;;;1.50;1.00;;;;;15.49;61.30;98668.19;5102100;27;45344;-80
2023/10/21 08:54:35;;;;;;;;;1.50;1.00;;;;;15.48;59.82;98664.72;5115858;27;45540;-80
2023/10/21 08:57:00;;;;;;;;;5.00;1.00;;;;;15.56;60.50;98675.50;5084130;27;45370;-76
2023/10/21 08:59:26;;;;;;;;;2.50;0.75;;;;;15.63;60.65;98667.09;5114942;27;45764;-80
2023/10/21 09:01:52;;;;;;;;;4.00;0.25;;;;;15.70;60.30;98676.16;5131976;27;64138;-85
2023/10/21 09:04:18;;;;;;;;;3.25;0.75;;;;;15.73;60.33;98671.47;5100447;27;46914;-81
2023/10/21 09:06:55;;;;;;;;;1.00;1.00;;;;;15.82;60.65;98679.66;5103442;27;45605;-81
2023/10/21 09:09:22;;;;;;;;;6.25;1.75;;;;;15.82;60.23;98674.38;5090685;27;45651;-82
2023/10/21 09:12:05;;;;;;;;;1.00;1.00;;;;;15.85;60.07;98685.50;5120486;27;45407;-81
2023/10/21 09:14:31;;;;;;;;;3.50;1.00;;;;;15.86;60.49;98681.88;5101684;27;47743;-81
2023/10/21 09:16:57;;;;;;;;;1.00;1.00;;;;;15.91;60.32;98697.34;5107958;27;45530;-81
2023/10/21 09:19:28;;;;;;;;;2.00;0.25;;;;;15.89;59.49;98681.66;5118320;27;45390;-82
2023/10/21 09:21:54;;;;;;;;;5.00;2.00;;;;;15.91;59.32;98690.25;5105891;27;45685;-83
2023/10/21 09:24:22;;;;;;;;;3.00;1.75;;;;;15.89;58.93;98681.66;5111868;27;45448;-87
2023/10/21 09:26:48;;;;;;;;;1.25;1.00;;;;;15.92;59.98;98688.50;5102278;27;45264;-82
2023/10/21 09:29:19;;;;;;;;;2.00;0.75;;;;;15.95;59.96;98680.31;5106517;27;45978;-85
2023/10/21 09:31:49;;;;;;;;;3.25;1.00;;;;;16.00;58.98;98688.69;5113243;27;45287;-84
2023/10/21 09:34:28;;;;;;;;;1.00;1.00;;;;;16.04;59.63;98702.44;5118718;27;46089;-85
2023/10/21 09:37:02;;;;;;;;;3.25;2.00;;;;;16.13;59.09;98709.63;5106595;27;45667;-82
2023/10/21 09:39:37;;;;;;;;;3.25;1.00;;;;;16.10;59.31;98701.97;5107598;27;45437;-82
2023/10/21 09:42:04;;;;;;;;;2.75;1.25;;;;;16.18;59.07;98704.78;5102380;27;45549;-81
2023/10/21 09:44:30;;;;;;;;;1.00;1.00;;;;;16.16;59.47;98700.59;5103919;27;46775;-82
2023/10/21 09:46:58;;;;;;;;;2.00;0.00;;;;;16.10;59.32;98691.41;5104824;27;45917;-76
2023/10/21 09:49:24;;;;;;;;;7.00;1.25;;;;;16.18;59.25;98701.31;5125003;27;45450;-87
2023/10/21 09:51:56;;;;;;;;;2.00;0.50;;;;;16.23;59.39;98709.69;5130474;27;45138;-79
2023/10/21 09:54:40;;;;;;;;;1.25;0.50;;;;;16.22;58.73;98690.38;5104142;27;45538;-79
2023/10/21 09:57:08;;;;;;;;;2.00;1.00;;;;;16.26;58.39;98710.28;5107226;27;45617;-83
2023/10/21 09:59:34;;;;;;;;;1.00;1.00;;;;;16.26;57.40;98710.28;5107336;27;45371;-84
2023/10/21 10:02:01;;;;;;;;;2.00;1.00;;;;;16.29;58.36;98717.13;5119151;27;50451;-86
2023/10/21 10:04:27;;;;;;;;;2.75;1.00;;;;;16.28;57.84;98687.22;5113920;27;46889;-84
2023/10/21 10:07:06;;;;;;;;;3.00;1.00;;;;;16.30;58.55;98716.13;5092561;27;45763;-83
2023/10/21 10:09:32;;;;;;;;;4.00;1.25;;;;;16.28;59.16;98707.50;5117253;27;45224;-85
2023/10/21 10:12:00;;;;;;;;;1.50;0.50;;;;;16.32;59.00;98714.19;5099996;27;45392;-71
2023/10/21 10:14:28;;;;;;;;;4.25;0.50;;;;;16.31;59.08;98718.66;5105688;27;46309;-75
2023/10/21 10:16:54;;;;;;;;;7.00;0.75;;;;;16.28;57.67;98723.34;5100799;27;45592;-74
2023/10/21 10:19:55;;;;;;;;;2.00;1.00;;;;;16.28;58.94;98726.81;5115463;27;45236;-76
2023/10/21 10:22:29;;;;;;;;;2.25;0.00;;;;;16.23;58.99;98721.06;5043514;28;45451;-74
2023/10/21 10:25:15;;;;;;;;;3.75;0.25;;;;;16.23;59.34;98720.25;5111802;27;45525;-74
2023/10/21 10:27:41;;;;;;;;;2.75;0.50;;;;;16.27;59.48;98719.88;5110749;27;45860;-74
2023/10/21 10:30:19;;;;;;;;;4.75;1.00;;;;;16.36;59.33;98726.19;5112886;27;45326;-74
2023/10/21 10:32:47;;;;;;;;;3.25;0.50;;;;;16.44;58.54;98715.81;5100745;27;45333;-77
2023/10/21 10:35:29;;;;;;;;;1.75;0.00;;;;;16.46;58.71;98719.16;5100477;27;45430;-75
2023/10/21 10:37:55;;;;;;;;;2.75;0.50;;;;;16.47;57.70;98717.38;5118975;27;45338;-74
2023/10/21 10:40:39;;;;;;;;;1.75;1.00;;;;;16.50;58.01;98715.31;5114007;27;57412;-77
2023/10/21 10:43:11;;;;;;;;;2.00;1.25;;;;;16.45;57.98;98700.81;5103609;27;45454;-73
2023/10/21 10:45:37;;;;;;;;;5.75;1.00;;;;;16.43;58.45;98713.31;5113753;27;45541;-75
2023/10/21 10:48:03;;;;;;;;;1.50;1.50;;;;;16.44;58.32;98717.63;5107023;27;45333;-75
2023/10/21 10:50:30;;;;;;;;;1.00;1.00;;;;;16.46;58.40;98734.19;5115964;27;45514;-71
2023/10/21 10:52:56;;;;;;;;;3.75;1.00;;;;;16.45;57.40;98728.06;5095303;27;45592;-75
2023/10/21 10:55:22;;;;;;;;;2.50;0.50;;;;;16.46;58.20;98734.19;5114618;27;46419;-86
2023/10/21 10:57:54;;;;;;;;;2.00;1.00;;;;;16.43;57.63;98731.78;5106700;27;46214;-77
2023/10/21 11:00:22;;;;;;;;;9.00;2.00;;;;;16.43;57.47;98731.78;5102447;27;45645;-78
2023/10/21 11:02:52;;;;;;;;;2.50;1.50;;;;;16.43;57.88;98726.50;5096347;27;45483;-79
2023/10/21 11:05:22;;;;;;;;;2.25;0.50;;;;;16.42;57.89;98722.19;5103488;27;45532;-74
2023/10/21 11:07:50;;;;;;;;;1.25;0.00;;;;;16.42;57.88;98730.13;5116742;27;45569;-75
2023/10/21 11:10:20;;;;;;;;;4.75;1.25;;;;;16.41;57.76;98718.69;5091781;27;45511;-75
2023/10/21 11:12:46;;;;;;;;;7.50;0.00;;;;;16.39;57.18;98707.44;5109837;27;45285;-80
2023/10/21 11:15:12;;;;;;;;;1.50;0.50;;;;;16.39;56.87;98722.44;5103666;27;47405;-75
2023/10/21 11:17:39;;;;;;;;;3.00;0.75;;;;;16.38;57.84;98720.75;5108850;27;45496;-71
2023/10/21 11:20:07;;;;;;;;;2.00;2.00;;;;;16.37;57.55;98727.84;5100622;27;45553;-72
2023/10/21 11:22:33;;;;;;;;;2.25;0.75;;;;;16.36;57.99;98735.91;5114162;27;45446;-72
2023/10/21 11:24:58;;;;;;;;;3.00;1.00;;;;;16.35;58.53;98726.31;5113022;27;46305;-72
2023/10/21 11:27:23;;;;;;;;;3.75;1.25;;;;;16.36;58.41;98733.25;5100201;27;45302;-71
2023/10/21 11:29:52;;;;;;;;;4.25;1.50;;;;;16.32;58.30;98735.31;5096693;27;68006;-71
2023/10/21 11:32:26;;;;;;;;;5.00;1.00;;;;;16.34;58.21;98730.75;5115591;27;45389;-76